Time;durP1;ratioP1;P1;durP2;ratioP2;P2;SDS_P1;SDS_P2;PMS_P1;PMS_P2;Temp;Humidity;BMP_temperature;BMP_pressure;BME280_temperature;BME280_humidity;BME280_pressure;Samples;Min_cycle;Max_cycle;Signal;HPM_P1;HPM_P2
2024/01/08 00:00:50;;;;;;;7.43;6.00;;;-2.60;99.90;;;;;;5005096;28;20058;-39
2024/01/08 00:03:15;;;;;;;7.47;5.95;;;-2.60;99.90;;;;;;5006318;28;20040;-36
2024/01/08 00:05:41;;;;;;;7.32;5.22;;;-2.60;99.90;;;;;;5005761;28;20030;-32
2024/01/08 00:08:07;;;;;;;6.43;5.55;;;-2.60;99.90;;;;;;5006700;28;20038;-33
2024/01/08 00:10:33;;;;;;;4.78;4.18;;;-2.70;99.90;;;;;;5004562;28;20014;-33
2024/01/08 00:12:59;;;;;;;5.28;4.45;;;-2.70;99.90;;;;;;5004650;28;20022;-36
2024/01/08 00:15:24;;;;;;;6.07;5.18;;;-2.70;99.90;;;;;;4998332;28;20472;-34
2024/01/08 00:17:50;;;;;;;9.68;6.60;;;-2.80;99.90;;;;;;5004825;28;20076;-34
2024/01/08 00:20:17;;;;;;;7.70;5.82;;;-2.80;99.90;;;;;;5004380;28;20038;-35
2024/01/08 00:22:42;;;;;;;6.43;5.10;;;-2.80;99.90;;;;;;5003051;28;20037;-35
2024/01/08 00:25:08;;;;;;;6.57;5.15;;;-2.80;99.90;;;;;;5007276;28;20388;-38
2024/01/08 00:27:34;;;;;;;8.82;5.28;;;-2.90;99.90;;;;;;4998878;28;20022;-35
2024/01/08 00:29:59;;;;;;;7.07;5.25;;;-3.00;99.90;;;;;;4997721;28;20030;-33
2024/01/08 00:32:25;;;;;;;5.45;4.80;;;-3.00;99.90;;;;;;5005846;28;20044;-34
2024/01/08 00:34:51;;;;;;;5.13;4.60;;;-3.00;99.90;;;;;;5005734;28;20053;-33
2024/01/08 00:37:17;;;;;;;6.28;5.15;;;-3.00;99.90;;;;;;5006219;28;20084;-35
2024/01/08 00:39:43;;;;;;;7.03;4.53;;;-3.00;99.90;;;;;;5003977;28;20081;-35
2024/01/08 00:42:09;;;;;;;6.50;5.38;;;-3.10;99.90;;;;;;4997484;28;20117;-34
2024/01/08 00:44:34;;;;;;;6.22;5.32;;;-3.10;99.90;;;;;;5001037;28;20090;-36
2024/01/08 00:47:00;;;;;;;4.90;4.38;;;-3.10;99.90;;;;;;5001431;28;20097;-36
2024/01/08 00:49:26;;;;;;;6.85;5.72;;;-3.10;99.90;;;;;;5001381;28;20108;-34
2024/01/08 00:51:51;;;;;;;6.93;5.00;;;-3.10;99.90;;;;;;5005377;28;20109;-35
2024/01/08 00:54:17;;;;;;;6.90;5.05;;;-3.20;99.90;;;;;;5006153;28;20480;-34
2024/01/08 00:56:43;;;;;;;5.85;5.18;;;-3.20;99.90;;;;;;4999522;28;20113;-39
2024/01/08 00:59:08;;;;;;;5.13;4.63;;;-3.20;99.90;;;;;;5003044;28;20133;-36
2024/01/08 01:01:34;;;;;;;6.95;4.93;;;-3.30;99.90;;;;;;5005483;28;20173;-33
2024/01/08 01:04:00;;;;;;;7.47;5.10;;;-3.30;99.90;;;;;;5005948;28;20046;-35
2024/01/08 01:06:25;;;;;;;6.32;4.70;;;-3.30;99.90;;;;;;5000566;28;20022;-34
2024/01/08 01:08:51;;;;;;;6.47;4.95;;;-3.30;99.90;;;;;;4995152;28;20395;-33
2024/01/08 01:11:17;;;;;;;5.18;4.15;;;-3.30;99.90;;;;;;5006678;28;20025;-34
2024/01/08 01:13:43;;;;;;;6.05;5.32;;;-3.30;99.90;;;;;;4998365;28;20108;-42
2024/01/08 01:16:08;;;;;;;5.43;4.13;;;-3.40;99.90;;;;;;5001751;28;20024;-40
2024/01/08 01:18:34;;;;;;;5.85;5.25;;;-3.30;99.90;;;;;;4998035;28;20033;-41
2024/01/08 01:21:00;;;;;;;6.90;4.88;;;-3.30;99.90;;;;;;5002487;28;20459;-40
2024/01/08 01:23:25;;;;;;;4.32;3.50;;;-3.30;99.90;;;;;;4999155;28;20060;-41
2024/01/08 01:25:51;;;;;;;5.93;5.00;;;-3.40;99.90;;;;;;4991813;28;20017;-40
2024/01/08 01:28:16;;;;;;;5.90;4.70;;;-3.40;99.90;;;;;;5003763;28;20049;-40
2024/01/08 01:30:42;;;;;;;5.18;4.68;;;-3.40;99.90;;;;;;5004003;28;20049;-40
2024/01/08 01:33:08;;;;;;;6.28;4.93;;;-3.40;99.90;;;;;;5000587;28;20446;-37
2024/01/08 01:35:34;;;;;;;4.60;3.55;;;-3.40;99.90;;;;;;5005886;28;20054;-41
2024/01/08 01:37:59;;;;;;;5.32;4.28;;;-3.40;99.90;;;;;;4989811;28;20550;-38
2024/01/08 01:40:25;;;;;;;5.18;4.13;;;-3.40;99.90;;;;;;5000060;28;20034;-38
2024/01/08 01:42:54;;;;;;;4.88;4.38;;;-3.40;99.90;;;;;;5003524;28;20034;-33
2024/01/08 01:45:21;;;;;;;6.05;4.72;;;-3.40;99.90;;;;;;4999472;28;20131;-33
2024/01/08 01:47:48;;;;;;;5.15;4.32;;;-3.40;99.90;;;;;;5002403;28;20498;-34
2024/01/08 01:50:14;;;;;;;4.15;3.45;;;-3.40;99.90;;;;;;4998300;28;20026;-33
2024/01/08 01:52:41;;;;;;;6.88;4.55;;;-3.40;99.90;;;;;;5004171;28;20080;-34
2024/01/08 01:55:08;;;;;;;5.35;3.80;;;-3.40;99.90;;;;;;5001944;28;20110;-36
2024/01/08 01:57:34;;;;;;;4.95;3.42;;;-3.40;99.90;;;;;;4993537;28;20077;-33
2024/01/08 02:00:00;;;;;;;4.85;4.03;;;-3.40;99.90;;;;;;5004962;28;20026;-32
2024/01/08 02:02:27;;;;;;;4.13;3.30;;;-3.40;99.90;;;;;;5003770;28;20121;-33
2024/01/08 02:04:55;;;;;;;5.83;4.57;;;-3.40;99.90;;;;;;5000717;28;20383;-38
2024/01/08 02:07:21;;;;;;;4.53;4.07;;;-3.50;99.90;;;;;;5002714;28;20037;-34
2024/01/08 02:09:46;;;;;;;3.55;3.15;;;-3.50;99.90;;;;;;5004846;28;20399;-33
2024/01/08 02:12:16;;;;;;;5.45;3.78;;;-3.50;99.90;;;;;;5006853;28;20030;-33
2024/01/08 02:14:43;;;;;;;4.85;3.88;;;-3.50;99.90;;;;;;5012218;28;20109;-33
2024/01/08 02:17:08;;;;;;;5.07;4.15;;;-3.50;99.90;;;;;;5000185;28;20092;-35
2024/01/08 02:19:34;;;;;;;5.10;4.00;;;-3.50;99.90;;;;;;5010522;28;20030;-33
2024/01/08 02:22:00;;;;;;;4.30;3.72;;;-3.50;99.90;;;;;;5004291;28;20545;-41
2024/01/08 02:24:28;;;;;;;6.47;4.28;;;-3.50;99.90;;;;;;5003904;28;20080;-40
2024/01/08 02:26:54;;;;;;;3.75;3.45;;;-3.50;99.90;;;;;;4989234;28;20103;-42
2024/01/08 02:29:21;;;;;;;5.65;4.72;;;-3.50;99.90;;;;;;5005160;28;20030;-42
2024/01/08 02:31:47;;;;;;;4.97;4.20;;;-3.50;99.90;;;;;;5004026;28;20062;-41
2024/01/08 02:34:13;;;;;;;5.28;4.00;;;-3.60;99.90;;;;;;5004495;28;20034;-41
2024/01/08 02:36:38;;;;;;;7.07;4.63;;;-3.50;99.90;;;;;;5008168;28;20857;-41
2024/01/08 02:39:05;;;;;;;3.75;3.42;;;-3.50;99.90;;;;;;5007159;28;20096;-41
2024/01/08 02:41:30;;;;;;;5.28;4.78;;;-3.50;99.90;;;;;;5009500;28;20032;-42
2024/01/08 02:43:56;;;;;;;4.68;4.28;;;-3.50;99.90;;;;;;5004908;28;20509;-39
2024/01/08 02:46:22;;;;;;;5.90;3.45;;;-3.50;99.90;;;;;;5001804;28;20055;-40
2024/01/08 02:48:47;;;;;;;4.75;4.22;;;-3.50;99.90;;;;;;5003328;28;20030;-42
2024/01/08 02:51:14;;;;;;;5.30;4.07;;;-3.60;99.90;;;;;;5003680;28;20110;-42
2024/01/08 02:53:39;;;;;;;5.47;4.22;;;-3.60;99.90;;;;;;5008388;28;20033;-36
2024/01/08 02:56:05;;;;;;;3.90;3.47;;;-3.60;99.90;;;;;;4997490;28;20518;-33
2024/01/08 02:58:31;;;;;;;4.03;3.58;;;-3.60;99.90;;;;;;5006610;28;20060;-37
2024/01/08 03:00:59;;;;;;;4.28;3.75;;;-3.60;99.90;;;;;;5004223;28;20046;-34
2024/01/08 03:03:25;;;;;;;3.63;3.25;;;-3.60;99.90;;;;;;5003506;28;20022;-33
2024/01/08 03:05:50;;;;;;;4.55;3.42;;;-3.60;99.90;;;;;;5004482;28;20041;-33
2024/01/08 03:08:16;;;;;;;4.55;3.47;;;-3.60;99.90;;;;;;5004358;28;20029;-34
2024/01/08 03:10:42;;;;;;;5.57;4.72;;;-3.60;99.90;;;;;;5011517;28;20025;-34
2024/01/08 03:13:07;;;;;;;4.95;4.03;;;-3.60;99.90;;;;;;5002287;28;20029;-35
2024/01/08 03:15:33;;;;;;;4.95;4.45;;;-3.60;99.90;;;;;;5000114;28;20037;-33
2024/01/08 03:17:59;;;;;;;5.05;3.63;;;-3.60;99.90;;;;;;4998195;28;20026;-33
2024/01/08 03:20:24;;;;;;;5.60;4.20;;;-3.60;99.90;;;;;;5003641;28;20037;-34
2024/01/08 03:22:51;;;;;;;3.28;2.97;;;-3.60;99.90;;;;;;5004934;28;20026;-35
2024/01/08 03:25:18;;;;;;;4.40;4.00;;;-3.50;99.90;;;;;;5006483;28;20533;-33
2024/01/08 03:27:43;;;;;;;5.00;4.50;;;-3.60;99.90;;;;;;5000777;28;20030;-38
2024/01/08 03:30:10;;;;;;;4.32;3.38;;;-3.60;99.90;;;;;;5004717;28;20761;-36
2024/01/08 03:32:35;;;;;;;5.03;4.47;;;-3.60;99.90;;;;;;5003476;28;20602;-34
2024/01/08 03:35:01;;;;;;;5.93;5.32;;;-3.60;99.90;;;;;;4998548;28;20030;-35
2024/01/08 03:37:26;;;;;;;7.05;4.43;;;-3.60;99.90;;;;;;4999216;28;20027;-34
2024/01/08 03:39:52;;;;;;;3.85;3.50;;;-3.60;99.90;;;;;;5003494;28;20018;-36
2024/01/08 03:42:18;;;;;;;4.60;3.88;;;-3.70;99.90;;;;;;5007577;28;20092;-35
2024/01/08 03:44:43;;;;;;;3.85;3.55;;;-3.60;99.90;;;;;;5006427;28;20112;-36
2024/01/08 03:47:10;;;;;;;4.13;3.83;;;-3.70;99.90;;;;;;5002687;28;20031;-34
2024/01/08 03:49:36;;;;;;;4.50;3.80;;;-3.70;99.90;;;;;;5007385;28;20050;-35
2024/01/08 03:52:01;;;;;;;3.25;2.95;;;-3.70;99.90;;;;;;5002631;28;20455;-35
2024/01/08 03:54:27;;;;;;;4.50;4.10;;;-3.70;99.90;;;;;;5007011;28;20245;-35
2024/01/08 03:56:52;;;;;;;4.80;3.20;;;-3.70;99.90;;;;;;4998382;28;20547;-37
2024/01/08 03:59:18;;;;;;;5.63;3.92;;;-3.70;99.90;;;;;;4997752;28;20077;-36
2024/01/08 04:01:45;;;;;;;3.97;3.28;;;-3.70;99.90;;;;;;5009389;28;20061;-35
2024/01/08 04:04:11;;;;;;;4.75;4.00;;;-3.70;99.90;;;;;;5011543;28;20399;-32
2024/01/08 04:06:37;;;;;;;4.72;3.60;;;-3.70;99.90;;;;;;5006396;28;20028;-34
2024/01/08 04:09:03;;;;;;;4.65;2.97;;;-3.70;99.90;;;;;;4999211;28;20037;-33
2024/01/08 04:11:29;;;;;;;5.25;3.67;;;-3.70;99.90;;;;;;5003812;28;20034;-35
2024/01/08 04:13:55;;;;;;;3.95;3.20;;;-3.70;99.90;;;;;;5007475;28;20116;-34
2024/01/08 04:16:21;;;;;;;3.88;3.33;;;-3.70;99.90;;;;;;5002309;28;20553;-33
2024/01/08 04:18:46;;;;;;;3.45;3.20;;;-3.70;99.90;;;;;;5005334;28;20033;-36
2024/01/08 04:21:16;;;;;;;3.92;3.53;;;-3.70;99.90;;;;;;5002831;28;20033;-33
2024/01/08 04:23:42;;;;;;;3.83;3.42;;;-3.70;99.90;;;;;;4999847;28;20026;-34
2024/01/08 04:26:13;;;;;;;4.75;3.60;;;-3.70;99.90;;;;;;5005579;28;20396;-37
2024/01/08 04:28:39;;;;;;;3.33;3.03;;;-3.70;99.90;;;;;;5003861;28;20488;-36
2024/01/08 04:31:04;;;;;;;4.03;3.00;;;-3.70;99.90;;;;;;5008521;28;20060;-37
2024/01/08 04:33:30;;;;;;;4.22;3.83;;;-3.70;99.90;;;;;;5002314;28;20490;-33
2024/01/08 04:35:56;;;;;;;4.10;3.53;;;-3.70;99.90;;;;;;5005042;28;20080;-37
2024/01/08 04:38:21;;;;;;;4.63;3.63;;;-3.70;99.90;;;;;;4995720;28;20030;-33
2024/01/08 04:40:47;;;;;;;4.97;3.95;;;-3.70;99.90;;;;;;4999764;28;20025;-33
2024/01/08 04:43:12;;;;;;;5.25;3.92;;;-3.60;99.90;;;;;;5000530;28;20057;-42
2024/01/08 04:45:38;;;;;;;4.00;3.40;;;-3.70;99.90;;;;;;5002747;28;20046;-39
2024/01/08 04:48:04;;;;;;;4.07;3.67;;;-3.70;99.90;;;;;;5006581;28;20083;-42
2024/01/08 04:50:29;;;;;;;3.22;2.80;;;-3.60;99.90;;;;;;5007588;28;20030;-42
2024/01/08 04:52:55;;;;;;;4.25;3.85;;;-3.70;99.90;;;;;;5005798;28;20136;-43
2024/01/08 04:55:21;;;;;;;4.25;3.38;;;-3.70;99.90;;;;;;5005002;28;20112;-40
2024/01/08 04:57:48;;;;;;;3.53;3.10;;;-3.70;99.90;;;;;;4999282;28;20038;-42
2024/01/08 05:00:14;;;;;;;3.38;3.08;;;-3.70;99.90;;;;;;5002942;28;20026;-41
2024/01/08 05:02:40;;;;;;;4.20;3.70;;;-3.60;99.90;;;;;;5001508;28;20041;-43
2024/01/08 05:05:07;;;;;;;6.50;4.05;;;-3.60;99.90;;;;;;4997993;28;20566;-40
2024/01/08 05:07:32;;;;;;;3.22;2.97;;;-3.70;99.90;;;;;;5004747;28;20735;-43
2024/01/08 05:09:58;;;;;;;5.47;4.28;;;-3.70;99.90;;;;;;5001605;28;20026;-41
2024/01/08 05:12:25;;;;;;;5.80;3.80;;;-3.60;99.90;;;;;;5003985;28;20498;-35
2024/01/08 05:14:50;;;;;;;4.38;3.45;;;-3.70;99.90;;;;;;5002871;28;20038;-35
2024/01/08 05:17:16;;;;;;;4.60;4.15;;;-3.70;99.90;;;;;;5001340;28;20042;-36
2024/01/08 05:19:42;;;;;;;3.80;3.42;;;-3.70;99.90;;;;;;5002825;28;20034;-33
2024/01/08 05:22:08;;;;;;;3.10;2.80;;;-3.70;99.90;;;;;;5001255;28;20123;-34
2024/01/08 05:24:33;;;;;;;4.40;3.70;;;-3.60;99.90;;;;;;5006021;28;20053;-32
2024/01/08 05:26:59;;;;;;;4.05;3.65;;;-3.70;99.90;;;;;;4999851;28;20507;-33
2024/01/08 05:29:24;;;;;;;5.28;4.13;;;-3.70;99.90;;;;;;5004421;28;20033;-35
2024/01/08 05:31:50;;;;;;;5.40;3.45;;;-3.70;99.90;;;;;;5003128;28;20045;-32
2024/01/08 05:34:16;;;;;;;4.30;3.63;;;-3.70;99.90;;;;;;4998512;28;20042;-32
2024/01/08 05:36:42;;;;;;;5.03;4.07;;;-3.60;99.90;;;;;;5001502;28;20065;-32
2024/01/08 05:39:08;;;;;;;5.32;4.15;;;-3.60;99.90;;;;;;4994222;28;20023;-36
2024/01/08 05:41:37;;;;;;;4.32;3.92;;;-3.60;99.90;;;;;;4988640;28;20052;-32
2024/01/08 05:44:03;;;;;;;5.00;3.20;;;-3.60;99.90;;;;;;5000831;28;20022;-32
2024/01/08 05:46:29;;;;;;;4.43;4.03;;;-3.60;99.90;;;;;;4982815;28;20415;-34
2024/01/08 05:48:55;;;;;;;4.15;3.22;;;-3.60;99.90;;;;;;5003333;28;20026;-36
2024/01/08 05:51:20;;;;;;;4.35;3.65;;;-3.60;99.90;;;;;;4997935;28;20034;-35
2024/01/08 05:53:46;;;;;;;5.70;3.92;;;-3.60;99.90;;;;;;5002280;28;20029;-32
2024/01/08 05:56:12;;;;;;;4.20;3.75;;;-3.60;99.90;;;;;;4998122;28;20120;-36
2024/01/08 05:58:37;;;;;;;3.42;3.13;;;-3.60;99.90;;;;;;5002743;28;20107;-32
2024/01/08 06:01:03;;;;;;;3.83;3.45;;;-3.60;99.90;;;;;;4999120;28;20046;-34
2024/01/08 06:03:28;;;;;;;3.53;3.22;;;-3.60;99.90;;;;;;5002194;28;20104;-35
2024/01/08 06:05:54;;;;;;;4.70;4.22;;;-3.60;99.90;;;;;;5001257;28;20026;-34
2024/01/08 06:08:20;;;;;;;4.85;4.13;;;-3.60;99.90;;;;;;5002420;28;20061;-32
2024/01/08 06:10:47;;;;;;;4.20;3.80;;;-3.60;99.90;;;;;;5001322;28;20458;-34
2024/01/08 06:13:13;;;;;;;4.45;4.05;;;-3.60;99.90;;;;;;4997974;28;20036;-32
2024/01/08 06:15:38;;;;;;;4.63;3.78;;;-3.60;99.90;;;;;;4998816;28;20021;-32
2024/01/08 06:18:04;;;;;;;4.32;3.75;;;-3.60;99.90;;;;;;4997810;28;20022;-32
2024/01/08 06:20:30;;;;;;;3.88;3.58;;;-3.60;99.90;;;;;;5004371;28;20495;-32
2024/01/08 06:22:56;;;;;;;5.97;4.25;;;-3.60;99.90;;;;;;4998346;28;20475;-33
2024/01/08 06:25:22;;;;;;;6.72;4.90;;;-3.60;99.90;;;;;;5000212;28;20030;-36
2024/01/08 06:27:47;;;;;;;4.10;3.42;;;-3.60;99.90;;;;;;5002901;28;20076;-33
2024/01/08 06:30:13;;;;;;;5.38;4.20;;;-3.60;99.90;;;;;;4998316;28;20030;-33
2024/01/08 06:32:39;;;;;;;4.10;3.22;;;-3.50;99.90;;;;;;4999739;28;20041;-34
2024/01/08 06:35:04;;;;;;;3.85;3.25;;;-3.50;99.90;;;;;;5002323;28;20063;-32
2024/01/08 06:37:30;;;;;;;4.28;3.40;;;-3.60;99.90;;;;;;5004288;28;20026;-34
2024/01/08 06:39:56;;;;;;;3.53;2.95;;;-3.50;99.90;;;;;;5005525;28;20029;-35
2024/01/08 06:42:21;;;;;;;5.22;3.50;;;-3.50;99.90;;;;;;5001911;28;20522;-34
2024/01/08 06:44:47;;;;;;;3.33;3.03;;;-3.50;99.90;;;;;;5001157;28;20026;-32
2024/01/08 06:47:12;;;;;;;2.63;2.50;;;-3.50;99.90;;;;;;5000538;28;20477;-33
2024/01/08 06:49:38;;;;;;;4.88;4.35;;;-3.50;99.90;;;;;;5002618;28;20029;-34
2024/01/08 06:52:04;;;;;;;6.65;3.03;;;-3.50;99.90;;;;;;4984790;28;20464;-37
2024/01/08 06:54:30;;;;;;;4.78;3.38;;;-3.50;99.90;;;;;;5000840;28;20034;-32
2024/01/08 06:56:55;;;;;;;3.75;3.38;;;-3.50;99.90;;;;;;5001105;28;20035;-33
2024/01/08 06:59:21;;;;;;;6.22;4.15;;;-3.50;99.90;;;;;;4994786;28;20034;-38
2024/01/08 07:01:48;;;;;;;4.65;3.58;;;-3.50;99.90;;;;;;5001671;28;20042;-33
2024/01/08 07:04:14;;;;;;;4.22;3.83;;;-3.50;99.90;;;;;;5004046;28;20030;-33
2024/01/08 07:06:39;;;;;;;5.57;4.68;;;-3.50;99.90;;;;;;5003827;28;20057;-33
2024/01/08 07:09:06;;;;;;;3.70;3.40;;;-3.50;99.90;;;;;;4994583;28;20121;-32
2024/01/08 07:11:31;;;;;;;4.18;3.78;;;-3.50;99.90;;;;;;5009294;28;20030;-32
2024/01/08 07:13:58;;;;;;;4.80;3.60;;;-3.50;99.90;;;;;;5000703;28;20034;-33
2024/01/08 07:16:24;;;;;;;5.10;4.45;;;-3.50;99.90;;;;;;4995094;28;20382;-32
2024/01/08 07:18:50;;;;;;;5.10;4.05;;;-3.50;99.90;;;;;;5007046;28;20041;-33
2024/01/08 07:21:16;;;;;;;4.40;3.85;;;-3.50;99.90;;;;;;5000750;28;20039;-33
2024/01/08 07:23:45;;;;;;;5.65;4.07;;;-3.50;99.90;;;;;;5006733;28;20026;-33
2024/01/08 07:26:14;;;;;;;4.88;4.28;;;-3.50;99.90;;;;;;5000497;28;20064;-34
2024/01/08 07:28:41;;;;;;;4.15;3.72;;;-3.50;99.90;;;;;;5007017;28;20160;-33
2024/01/08 07:31:07;;;;;;;7.47;4.22;;;-3.50;99.90;;;;;;5002473;28;20824;-38
2024/01/08 07:33:34;;;;;;;5.25;4.13;;;-3.40;99.90;;;;;;4998578;28;20109;-38
2024/01/08 07:35:59;;;;;;;6.47;4.35;;;-3.40;99.90;;;;;;4999260;28;20033;-42
2024/01/08 07:38:27;;;;;;;3.67;3.33;;;-3.40;99.90;;;;;;5001033;28;20025;-39
2024/01/08 07:40:53;;;;;;;4.93;4.53;;;-3.40;99.90;;;;;;5006610;28;20387;-38
2024/01/08 07:43:18;;;;;;;4.60;3.80;;;-3.40;99.90;;;;;;5006447;28;20025;-40
2024/01/08 07:45:44;;;;;;;4.13;3.75;;;-3.40;99.90;;;;;;5005794;28;20124;-40
2024/01/08 07:48:10;;;;;;;4.93;4.05;;;-3.40;99.90;;;;;;5000624;28;20271;-41
2024/01/08 07:50:35;;;;;;;7.68;4.57;;;-3.40;99.90;;;;;;5002794;28;20030;-40
2024/01/08 07:53:01;;;;;;;3.63;3.30;;;-3.40;99.90;;;;;;4994070;28;20526;-40
2024/01/08 07:55:26;;;;;;;5.93;4.47;;;-3.40;99.90;;;;;;5004646;28;20081;-41
2024/01/08 07:57:52;;;;;;;6.00;4.10;;;-3.40;99.90;;;;;;5006888;28;20060;-40
2024/01/08 08:00:20;;;;;;;6.68;4.78;;;-3.40;99.90;;;;;;5005294;28;20040;-41
2024/01/08 08:02:46;;;;;;;7.10;4.50;;;-3.40;99.90;;;;;;5000711;28;20038;-40
2024/01/08 08:05:11;;;;;;;5.55;4.30;;;-3.40;99.90;;;;;;5002268;28;20026;-39
2024/01/08 08:07:37;;;;;;;4.68;4.28;;;-3.40;99.90;;;;;;4996796;28;20199;-41
2024/01/08 08:10:06;;;;;;;5.75;4.15;;;-3.40;99.90;;;;;;4999491;28;20035;-38
2024/01/08 08:12:32;;;;;;;4.22;3.53;;;-3.30;99.90;;;;;;5000500;28;20558;-39
2024/01/08 08:14:58;;;;;;;6.63;4.70;;;-3.30;99.90;;;;;;4998023;28;20113;-41
2024/01/08 08:17:25;;;;;;;4.53;3.97;;;-3.30;99.90;;;;;;5001393;28;20057;-41
2024/01/08 08:19:51;;;;;;;6.80;4.63;;;-3.40;99.90;;;;;;5000077;28;20072;-41
2024/01/08 08:22:16;;;;;;;6.35;4.85;;;-3.30;99.90;;;;;;4999101;28;20117;-38
2024/01/08 08:24:42;;;;;;;6.25;4.75;;;-3.30;99.90;;;;;;5001902;28;20093;-39
2024/01/08 08:27:09;;;;;;;4.80;4.05;;;-3.30;99.90;;;;;;4998744;28;20023;-39
2024/01/08 08:29:42;;;;;;;5.18;4.32;;;-3.30;99.90;;;;;;5005011;28;20369;-41
2024/01/08 08:32:08;;;;;;;6.75;4.55;;;-3.30;99.90;;;;;;4998023;28;20030;-39
2024/01/08 08:34:34;;;;;;;5.40;4.13;;;-3.30;99.90;;;;;;5010584;28;20028;-41
2024/01/08 08:37:00;;;;;;;5.13;4.15;;;-3.30;99.90;;;;;;5002149;28;20399;-40
2024/01/08 08:39:25;;;;;;;5.65;3.83;;;-3.30;99.90;;;;;;4998809;28;20030;-41
2024/01/08 08:41:51;;;;;;;6.20;4.03;;;-3.20;99.90;;;;;;5000353;28;20034;-33
2024/01/08 08:44:17;;;;;;;4.65;3.72;;;-3.20;99.90;;;;;;5005283;28;20028;-32
2024/01/08 08:46:44;;;;;;;7.68;3.95;;;-3.20;99.90;;;;;;5000061;28;20065;-32
2024/01/08 08:49:12;;;;;;;4.15;3.75;;;-3.20;99.90;;;;;;5010791;28;20498;-36
2024/01/08 08:51:37;;;;;;;6.38;4.13;;;-3.20;99.90;;;;;;5001973;28;20567;-35
2024/01/08 08:54:04;;;;;;;4.90;4.00;;;-3.20;99.90;;;;;;5004037;28;20101;-32
2024/01/08 08:56:39;;;;;;;6.97;4.53;;;-3.20;99.90;;;;;;4994934;28;20157;-34
2024/01/08 08:59:05;;;;;;;3.90;3.50;;;-3.20;99.90;;;;;;4994811;28;20457;-34
2024/01/08 09:01:30;;;;;;;5.10;3.58;;;-3.20;99.90;;;;;;5002994;28;20145;-33
2024/01/08 09:03:56;;;;;;;6.15;4.45;;;-3.20;99.90;;;;;;4996283;28;20031;-33
2024/01/08 09:06:27;;;;;;;4.75;3.88;;;-3.10;99.90;;;;;;5001105;28;20359;-33
2024/01/08 09:08:53;;;;;;;4.95;3.88;;;-3.20;99.90;;;;;;5004508;28;20036;-36
2024/01/08 09:11:19;;;;;;;5.70;4.03;;;-3.10;99.90;;;;;;5000138;28;20054;-33
2024/01/08 09:13:46;;;;;;;5.63;3.60;;;-3.10;99.90;;;;;;4988425;28;20164;-33
2024/01/08 09:16:14;;;;;;;6.93;4.45;;;-3.10;99.90;;;;;;5005092;28;20081;-33
2024/01/08 09:18:40;;;;;;;7.75;4.60;;;-3.10;99.90;;;;;;5002105;28;20026;-32
2024/01/08 09:21:13;;;;;;;6.57;4.40;;;-3.10;99.90;;;;;;4996228;28;20026;-33
2024/01/08 09:23:42;;;;;;;4.80;4.18;;;-3.10;99.90;;;;;;4982254;28;20018;-42
2024/01/08 09:26:08;;;;;;;5.80;4.32;;;-3.10;99.90;;;;;;5009639;28;20100;-39
2024/01/08 09:28:34;;;;;;;5.03;4.25;;;-3.10;99.90;;;;;;4996936;28;20472;-38
2024/01/08 09:31:01;;;;;;;5.97;4.43;;;-3.10;99.90;;;;;;4996397;28;20038;-44
2024/01/08 09:33:27;;;;;;;4.00;3.50;;;-3.00;99.90;;;;;;5005481;28;20037;-42
2024/01/08 09:35:53;;;;;;;4.47;3.72;;;-3.00;99.90;;;;;;5001955;28;20022;-40
2024/01/08 09:38:18;;;;;;;7.53;3.88;;;-3.00;99.90;;;;;;4995978;28;20065;-42
2024/01/08 09:40:46;;;;;;;5.03;4.30;;;-3.00;99.90;;;;;;5001630;28;20041;-41
2024/01/08 09:43:14;;;;;;;4.25;3.80;;;-3.00;99.90;;;;;;5000627;28;20073;-42
2024/01/08 09:45:58;;;;;;;5.88;4.65;;;-3.00;99.90;;;;;;4999903;28;20045;-41
2024/01/08 09:48:24;;;;;;;5.57;4.55;;;-3.10;99.90;;;;;;4996515;28;20066;-42
2024/01/08 09:50:51;;;;;;;5.30;3.85;;;-3.00;99.90;;;;;;4995173;28;20030;-40
2024/01/08 09:53:17;;;;;;;5.55;4.40;;;-3.00;99.90;;;;;;4997875;28;20104;-39
2024/01/08 09:55:44;;;;;;;4.47;3.90;;;-2.90;99.90;;;;;;4996897;28;20034;-41
2024/01/08 09:58:10;;;;;;;5.53;3.70;;;-2.90;99.90;;;;;;4999194;28;20045;-40
2024/01/08 10:00:36;;;;;;;4.28;3.90;;;-3.00;99.90;;;;;;4997789;28;20038;-40
2024/01/08 10:03:02;;;;;;;5.75;4.72;;;-2.90;99.90;;;;;;4998872;28;20061;-40
2024/01/08 10:05:31;;;;;;;5.70;4.72;;;-2.90;99.90;;;;;;4994421;28;20053;-38
2024/01/08 10:08:00;;;;;;;6.05;4.47;;;-2.90;99.90;;;;;;5002777;28;20034;-40
2024/01/08 10:10:26;;;;;;;5.15;4.18;;;-2.90;99.90;;;;;;4998779;28;20388;-39
2024/01/08 10:12:53;;;;;;;8.18;5.32;;;-2.90;99.90;;;;;;4994886;28;20030;-38
2024/01/08 10:15:19;;;;;;;5.05;4.50;;;-2.90;99.90;;;;;;5002552;28;20042;-40
2024/01/08 10:17:51;;;;;;;5.38;4.55;;;-2.90;99.90;;;;;;4999936;28;20026;-41
2024/01/08 10:20:17;;;;;;;5.75;5.07;;;-2.90;99.90;;;;;;5000143;28;20046;-39
2024/01/08 10:22:45;;;;;;;6.28;4.68;;;-2.90;99.90;;;;;;4999147;28;20029;-41
2024/01/08 10:25:11;;;;;;;6.53;4.13;;;-2.90;99.90;;;;;;5002172;28;20038;-40
2024/01/08 10:27:38;;;;;;;6.80;5.00;;;-2.90;99.90;;;;;;4997935;28;20026;-41
2024/01/08 10:30:04;;;;;;;5.35;4.82;;;-2.90;99.90;;;;;;4998100;28;20506;-40
2024/01/08 10:32:29;;;;;;;5.28;4.28;;;-2.90;99.90;;;;;;5004164;28;20022;-33
2024/01/08 10:34:58;;;;;;;4.72;4.28;;;-2.90;99.90;;;;;;5010017;28;20029;-38
2024/01/08 10:37:25;;;;;;;;;;;-2.90;99.90;;;;;;5002850;28;20119;-33
2024/01/08 10:39:51;;;;;;;5.30;4.10;;;-2.90;99.90;;;;;;4999972;28;19920;-35
2024/01/08 10:42:17;;;;;;;7.05;5.30;;;-2.90;99.90;;;;;;4998536;28;20021;-34
2024/01/08 10:44:43;;;;;;;6.68;5.18;;;-2.90;99.90;;;;;;4995849;28;20533;-35
2024/01/08 10:47:19;;;;;;;6.15;4.82;;;-2.90;99.90;;;;;;4997688;28;20031;-33
2024/01/08 10:49:56;;;;;;;5.15;4.22;;;-2.80;99.90;;;;;;4995891;28;20045;-33
2024/01/08 10:52:27;;;;;;;6.10;4.47;;;-2.80;99.90;;;;;;4987930;28;20041;-34
2024/01/08 10:54:58;;;;;;;5.70;4.47;;;-2.90;99.90;;;;;;4999326;28;20435;-33
2024/01/08 10:57:56;;;;;;;6.18;5.22;;;-2.80;99.90;;;;;;4997564;28;20026;-34
2024/01/08 11:00:23;;;;;;;6.20;4.38;;;-2.90;99.90;;;;;;4988991;28;20502;-34
2024/01/08 11:02:49;;;;;;;7.13;5.13;;;-2.90;99.90;;;;;;5000800;28;20037;-42
2024/01/08 11:05:16;;;;;;;7.28;5.75;;;-2.80;99.90;;;;;;5001632;28;20387;-42
2024/01/08 11:07:43;;;;;;;6.57;5.18;;;-2.90;99.90;;;;;;5008510;28;20042;-41
2024/01/08 11:10:10;;;;;;;9.43;5.55;;;-2.80;99.90;;;;;;4994526;28;20040;-42
2024/01/08 11:12:36;;;;;;;5.93;4.78;;;-2.80;99.90;;;;;;4993547;28;20030;-34
2024/01/08 11:15:06;;;;;;;6.07;4.63;;;-2.80;99.90;;;;;;4998134;28;20038;-34
2024/01/08 11:17:33;;;;;;;6.15;4.95;;;-2.80;99.90;;;;;;5001012;28;20029;-33
2024/01/08 11:19:59;;;;;;;8.30;6.00;;;-2.70;99.90;;;;;;4994441;28;20045;-39
2024/01/08 11:22:26;;;;;;;7.85;5.40;;;-2.80;99.90;;;;;;4991445;28;20036;-33
2024/01/08 11:25:00;;;;;;;6.20;4.97;;;-2.80;99.90;;;;;;4999617;28;20030;-35
2024/01/08 11:27:26;;;;;;;6.53;4.18;;;-2.80;99.90;;;;;;4999136;28;20023;-33
2024/01/08 11:29:58;;;;;;;6.20;4.85;;;-2.80;99.90;;;;;;4995844;28;20037;-39
2024/01/08 11:32:30;;;;;;;7.65;5.18;;;-2.70;99.90;;;;;;4992146;28;20045;-36
2024/01/08 11:35:10;;;;;;;7.93;5.68;;;-2.70;99.90;;;;;;4999891;28;20041;-35
2024/01/08 11:37:38;;;;;;;5.35;4.18;;;-2.70;99.90;;;;;;4997835;28;20084;-34
2024/01/08 11:40:20;;;;;;;5.60;4.78;;;-2.70;99.90;;;;;;5003018;28;20076;-33
2024/01/08 11:42:49;;;;;;;6.13;5.28;;;-2.70;99.90;;;;;;4996040;28;20158;-42
2024/01/08 11:45:16;;;;;;;6.57;4.50;;;-2.70;99.90;;;;;;4995754;28;20038;-42
2024/01/08 11:47:43;;;;;;;8.57;5.53;;;-2.70;99.90;;;;;;5001316;28;20018;-42
2024/01/08 11:50:10;;;;;;;6.70;5.97;;;-2.60;99.90;;;;;;5004286;28;20605;-42
2024/01/08 11:52:39;;;;;;;3.95;3.65;;;-2.60;99.90;;;;;;4998507;28;20601;-40
2024/01/08 11:55:06;;;;;;;8.02;5.60;;;-2.60;99.90;;;;;;5007857;28;20555;-42
2024/01/08 11:57:34;;;;;;;7.72;5.75;;;-2.60;99.90;;;;;;4999944;28;20081;-43
2024/01/08 12:00:13;;;;;;;7.53;6.10;;;-2.60;99.90;;;;;;5010569;28;20045;-41
2024/01/08 12:02:39;;;;;;;6.70;5.43;;;-2.70;99.90;;;;;;4996528;28;20031;-42
2024/01/08 12:05:05;;;;;;;7.28;5.88;;;-2.70;99.90;;;;;;5002409;28;20030;-42
2024/01/08 12:07:32;;;;;;;6.63;5.07;;;-2.70;99.90;;;;;;5001227;28;20034;-42
2024/01/08 12:10:04;;;;;;;8.15;6.25;;;-2.70;99.90;;;;;;5005596;28;20026;-42
2024/01/08 12:12:30;;;;;;;7.47;4.82;;;-2.60;99.90;;;;;;5003662;28;20034;-41
2024/01/08 12:14:55;;;;;;;9.13;5.40;;;-2.60;99.90;;;;;;4989121;28;20033;-38
2024/01/08 12:17:22;;;;;;;7.47;4.80;;;-2.60;99.90;;;;;;5005365;28;20037;-41
2024/01/08 12:19:55;;;;;;;8.57;6.15;;;-2.60;99.90;;;;;;5000655;28;20034;-41
2024/01/08 12:22:26;;;;;;;7.82;5.78;;;-2.50;99.90;;;;;;4997694;28;20038;-41
2024/01/08 12:24:53;;;;;;;7.22;5.78;;;-2.60;99.90;;;;;;5003001;28;20026;-41
2024/01/08 12:27:20;;;;;;;8.65;5.63;;;-2.60;99.90;;;;;;4999178;28;20034;-41
2024/01/08 12:29:48;;;;;;;8.57;6.50;;;-2.60;99.90;;;;;;4981855;28;20451;-41
2024/01/08 12:32:16;;;;;;;9.02;5.88;;;-2.60;99.90;;;;;;5000637;28;20041;-39
2024/01/08 12:34:43;;;;;;;10.60;5.80;;;-2.60;99.90;;;;;;5000957;28;20026;-41
2024/01/08 12:37:10;;;;;;;5.70;5.03;;;-2.60;99.90;;;;;;5000306;28;20546;-40
2024/01/08 12:39:36;;;;;;;6.75;5.13;;;-2.50;99.90;;;;;;5006303;28;20097;-38
2024/01/08 12:42:05;;;;;;;7.38;5.70;;;-2.50;99.90;;;;;;5004594;28;20037;-41
2024/01/08 12:44:32;;;;;;;8.45;5.57;;;-2.50;99.90;;;;;;4999062;28;20029;-40